createdAt,value
2023-02-23T00:02:14.696Z,22.80
2023-02-23T00:05:17.851Z,22.50
2023-02-23T00:08:20.330Z,22.80
2023-02-23T00:11:23.670Z,22.60
2023-02-23T00:14:28.438Z,22.50
2023-02-23T00:17:31.580Z,22.50
2023-02-23T00:20:33.566Z,22.50
2023-02-23T00:23:38.808Z,22.40
2023-02-23T00:26:45.405Z,22.40
2023-02-23T00:29:49.603Z,22.60
2023-02-23T00:32:52.570Z,23.00
2023-02-23T00:35:55.550Z,22.20
2023-02-23T00:39:00.451Z,22.00
2023-02-23T00:42:03.105Z,21.90
2023-02-23T00:45:10.869Z,22.20
2023-02-23T00:48:13.181Z,22.40
2023-02-23T00:51:18.068Z,22.10
2023-02-23T00:54:22.224Z,22.10
2023-02-23T00:57:24.208Z,22.10
2023-02-23T01:00:26.637Z,22.30
2023-02-23T01:03:29.927Z,22.20
2023-02-23T01:06:32.443Z,22.20
2023-02-23T01:09:34.495Z,22.10
2023-02-23T01:12:37.817Z,22.00
2023-02-23T01:15:44.384Z,22.10
2023-02-23T01:18:48.960Z,22.00
2023-02-23T01:21:51.297Z,22.10
2023-02-23T01:24:53.511Z,22.00
2023-02-23T01:27:55.972Z,22.20
2023-02-23T01:30:58.310Z,22.70
2023-02-23T01:34:02.555Z,22.80
2023-02-23T01:37:04.785Z,22.80
2023-02-23T01:40:13.437Z,22.50
2023-02-23T01:43:26.141Z,22.30
2023-02-23T01:46:28.250Z,22.40
2023-02-23T01:49:32.867Z,22.60
2023-02-23T01:52:37.023Z,22.70
2023-02-23T01:55:39.940Z,22.50
2023-02-23T01:58:46.661Z,22.00
2023-02-23T02:01:48.920Z,22.30
2023-02-23T02:04:52.280Z,22.30
2023-02-23T02:07:59.101Z,22.50
2023-02-23T02:11:08.371Z,22.40
2023-02-23T02:14:15.927Z,22.20
2023-02-23T02:17:45.680Z,22.40
2023-02-23T02:21:28.823Z,22.30
2023-02-23T02:24:39.751Z,22.40
2023-02-23T02:27:50.611Z,22.40
2023-02-23T02:31:31.595Z,22.40
2023-02-23T02:34:46.107Z,22.50
2023-02-23T02:38:04.009Z,22.40
2023-02-23T02:41:16.349Z,22.20
2023-02-23T02:44:30.393Z,22.20
2023-02-23T02:47:42.950Z,22.00
2023-02-23T02:51:09.807Z,22.00
2023-02-23T02:54:42.401Z,21.80
2023-02-23T02:57:46.891Z,21.80
2023-02-23T03:01:09.113Z,21.90
2023-02-23T03:04:41.920Z,21.90
2023-02-23T03:08:26.186Z,21.80
2023-02-23T03:12:06.748Z,22.00
2023-02-23T03:15:42.836Z,21.90
2023-02-23T03:19:38.490Z,22.00
2023-02-23T03:23:14.608Z,22.10
2023-02-23T03:26:45.128Z,22.10
2023-02-23T03:30:17.879Z,22.00
2023-02-23T03:34:11.617Z,22.00
2023-02-23T03:37:35.500Z,22.10
2023-02-23T03:41:00.104Z,22.40
2023-02-23T03:44:30.039Z,22.40
2023-02-23T03:47:54.377Z,22.20
2023-02-23T03:51:20.072Z,22.10
2023-02-23T03:54:54.710Z,21.80
2023-02-23T03:58:19.830Z,21.90
2023-02-23T04:01:44.634Z,21.80
2023-02-23T04:05:26.857Z,21.90
2023-02-23T04:08:54.693Z,22.00
2023-02-23T04:12:32.137Z,22.20
2023-02-23T04:15:38.104Z,22.30
2023-02-23T04:18:40.616Z,22.00
2023-02-23T04:21:42.868Z,22.20
2023-02-23T04:24:46.217Z,22.20
2023-02-23T04:27:49.528Z,22.50
2023-02-23T04:30:52.897Z,22.70
2023-02-23T04:33:55.275Z,22.30
2023-02-23T04:36:57.295Z,22.40
2023-02-23T04:39:59.813Z,22.30
2023-02-23T04:43:01.808Z,22.30
2023-02-23T04:46:04.151Z,22.20
2023-02-23T04:49:06.231Z,22.40
2023-02-23T04:52:09.080Z,22.20
2023-02-23T04:55:29.084Z,22.50
2023-02-23T04:58:31.372Z,22.30
2023-02-23T05:01:33.494Z,22.40
2023-02-23T05:04:35.901Z,22.80
2023-02-23T05:07:38.389Z,22.30
2023-02-23T05:10:42.641Z,22.10
2023-02-23T05:13:44.807Z,22.20
2023-02-23T05:16:47.121Z,22.00
2023-02-23T05:19:49.267Z,22.20
2023-02-23T05:22:51.553Z,22.30
2023-02-23T05:25:56.615Z,22.30
2023-02-23T05:28:58.863Z,22.60
2023-02-23T05:32:00.997Z,22.40
2023-02-23T05:35:04.131Z,22.50
2023-02-23T05:38:06.088Z,22.50
2023-02-23T05:41:10.814Z,22.90
2023-02-23T05:44:13.066Z,22.70
2023-02-23T05:47:15.321Z,22.70
2023-02-23T05:50:17.527Z,22.80
2023-02-23T05:53:20.014Z,22.60
2023-02-23T05:56:22.033Z,22.50
2023-02-23T05:59:24.265Z,22.40
2023-02-23T06:02:26.406Z,22.30
2023-02-23T06:05:28.715Z,22.20
2023-02-23T06:08:30.726Z,22.40
2023-02-23T06:11:33.310Z,22.60
2023-02-23T06:14:35.629Z,22.70
2023-02-23T06:17:37.855Z,22.70
2023-02-23T06:20:40.522Z,22.80
2023-02-23T06:23:42.905Z,23.30
2023-02-23T06:26:45.311Z,23.10
2023-02-23T06:29:47.598Z,22.90
2023-02-23T06:32:49.673Z,23.00
2023-02-23T06:35:52.869Z,23.00
2023-02-23T06:38:59.091Z,22.60
2023-02-23T06:42:01.356Z,22.70
2023-02-23T06:45:05.713Z,22.70
2023-02-23T06:48:08.644Z,22.40
2023-02-23T06:51:10.912Z,22.50
2023-02-23T06:54:13.248Z,22.80
2023-02-23T06:57:15.185Z,22.80
2023-02-23T07:00:18.200Z,22.70
2023-02-23T07:03:20.146Z,22.70
2023-02-23T07:06:23.228Z,22.40
2023-02-23T07:09:25.399Z,22.50
2023-02-23T07:12:30.024Z,22.30
2023-02-23T07:15:31.999Z,22.60
2023-02-23T07:18:38.194Z,22.70
2023-02-23T07:21:40.256Z,23.10
2023-02-23T07:24:42.574Z,22.70
2023-02-23T07:27:45.337Z,22.40
2023-02-23T07:30:53.053Z,22.50
2023-02-23T07:33:55.892Z,22.30
2023-02-23T07:36:58.225Z,22.10
2023-02-23T07:40:01.261Z,22.40
2023-02-23T07:43:04.044Z,22.50
2023-02-23T07:46:06.149Z,22.30
2023-02-23T07:49:09.865Z,21.90
2023-02-23T07:52:11.932Z,22.00
2023-02-23T07:55:14.361Z,22.00
2023-02-23T07:58:16.536Z,22.20
2023-02-23T08:01:19.200Z,22.20
2023-02-23T08:04:21.533Z,22.00
2023-02-23T08:07:25.845Z,21.90
2023-02-23T08:10:27.946Z,21.80
2023-02-23T08:13:31.394Z,22.10
2023-02-23T08:16:34.030Z,22.20
2023-02-23T08:19:37.309Z,22.40
2023-02-23T08:22:48.830Z,23.00
2023-02-23T08:25:51.504Z,23.60
2023-02-23T08:28:54.795Z,23.30
2023-02-23T08:31:57.422Z,23.30
2023-02-23T08:35:01.117Z,22.80
2023-02-23T08:38:03.653Z,22.40
2023-02-23T08:41:06.501Z,22.90
2023-02-23T08:44:09.220Z,22.70
2023-02-23T08:47:11.203Z,22.80
2023-02-23T08:50:14.401Z,22.60
2023-02-23T08:53:17.631Z,22.70
2023-02-23T08:56:19.995Z,22.20
2023-02-23T08:59:22.125Z,22.10
2023-02-23T09:02:24.745Z,22.10
2023-02-23T09:05:27.057Z,22.00
2023-02-23T09:08:29.498Z,22.10
2023-02-23T09:11:31.621Z,22.00
2023-02-23T09:14:34.025Z,22.10
2023-02-23T09:17:36.362Z,22.60
2023-02-23T09:20:43.008Z,22.20
2023-02-23T09:23:46.893Z,22.30
2023-02-23T09:26:49.429Z,22.20
2023-02-23T09:29:51.450Z,22.40
2023-02-23T09:32:55.569Z,22.30
2023-02-23T09:35:58.672Z,21.90
2023-02-23T09:39:01.653Z,21.70
2023-02-23T09:42:33.921Z,21.90
2023-02-23T09:45:46.977Z,22.10
2023-02-23T09:48:49.787Z,22.00
2023-02-23T09:51:57.748Z,21.90
2023-02-23T09:55:00.026Z,22.00
2023-02-23T09:58:19.961Z,21.90
2023-02-23T10:01:41.345Z,21.70
2023-02-23T10:04:50.877Z,22.10
2023-02-23T10:08:00.998Z,22.60
2023-02-23T10:11:36.325Z,22.70
2023-02-23T10:14:58.361Z,22.30
2023-02-23T10:18:09.583Z,22.60
2023-02-23T10:21:17.151Z,22.50
2023-02-23T10:24:28.716Z,22.20
2023-02-23T10:27:41.981Z,22.10
2023-02-23T10:30:45.928Z,22.00
2023-02-23T10:33:48.464Z,21.80
2023-02-23T10:37:02.309Z,21.70
2023-02-23T10:40:06.065Z,21.50
2023-02-23T10:43:12.587Z,21.60
2023-02-23T10:46:22.491Z,21.70
2023-02-23T10:49:32.290Z,21.80
2023-02-23T10:52:45.017Z,21.60
2023-02-23T10:56:12.585Z,21.80
2023-02-23T10:59:20.571Z,22.00
2023-02-23T11:02:25.719Z,21.90
2023-02-23T11:05:35.911Z,22.00
2023-02-23T11:08:40.441Z,22.20
2023-02-23T11:12:00.500Z,22.10
2023-02-23T11:15:31.967Z,22.40
2023-02-23T11:19:03.395Z,22.40
2023-02-23T11:22:07.956Z,22.40
2023-02-23T11:25:29.061Z,22.10
2023-02-23T11:28:35.059Z,21.80
2023-02-23T11:31:37.736Z,22.00
2023-02-23T11:34:41.141Z,22.10
2023-02-23T11:37:43.519Z,22.50
2023-02-23T11:41:05.712Z,22.50
2023-02-23T11:44:18.388Z,22.20
2023-02-23T11:47:23.811Z,22.40
2023-02-23T11:50:28.520Z,22.40
2023-02-23T11:53:37.783Z,22.10
2023-02-23T11:56:39.906Z,22.10
2023-02-23T11:59:46.683Z,22.00
2023-02-23T12:02:58.620Z,22.30
2023-02-23T12:06:02.397Z,22.40
2023-02-23T12:09:23.291Z,22.30
2023-02-23T12:12:30.132Z,22.20
2023-02-23T12:15:51.064Z,22.10
2023-02-23T12:19:24.506Z,22.30
2023-02-23T12:22:35.210Z,22.20
2023-02-23T12:26:23.678Z,22.40
2023-02-23T12:29:48.502Z,22.40
2023-02-23T12:33:03.877Z,22.10
2023-02-23T12:36:09.391Z,22.00
2023-02-23T12:39:20.733Z,22.40
2023-02-23T12:42:54.204Z,22.20
2023-02-23T12:46:02.583Z,22.50
2023-02-23T12:49:30.290Z,22.30
2023-02-23T12:52:37.095Z,22.20
2023-02-23T12:56:08.497Z,22.20
2023-02-23T12:59:41.070Z,22.30
2023-02-23T13:03:09.914Z,22.00
2023-02-23T13:06:49.557Z,22.10
2023-02-23T13:09:54.771Z,22.00
2023-02-23T13:13:27.828Z,21.70
2023-02-23T13:16:39.119Z,21.90
2023-02-23T13:19:53.742Z,22.10
2023-02-23T13:23:28.205Z,22.20
2023-02-23T13:26:51.183Z,22.10
2023-02-23T13:29:55.278Z,21.80
2023-02-23T13:32:58.236Z,21.80
2023-02-23T13:36:04.589Z,21.90
2023-02-23T13:39:30.900Z,22.00
2023-02-23T13:42:42.960Z,21.90
2023-02-23T13:45:53.951Z,22.00
2023-02-23T13:49:31.102Z,22.10
2023-02-23T13:52:41.548Z,22.00
2023-02-23T13:55:51.274Z,22.30
2023-02-23T13:59:01.049Z,22.30
2023-02-23T14:02:37.561Z,22.30
2023-02-23T14:05:44.302Z,22.30
2023-02-23T14:09:24.346Z,22.00
2023-02-23T14:12:34.258Z,22.00
2023-02-23T14:15:37.754Z,22.10
2023-02-23T14:19:04.255Z,22.20
2023-02-23T14:22:14.254Z,22.10
2023-02-23T14:25:34.541Z,22.20
2023-02-23T14:28:39.445Z,22.20
2023-02-23T14:32:19.466Z,22.40
2023-02-23T14:35:33.841Z,22.60
2023-02-23T14:38:47.988Z,22.80
2023-02-23T14:41:57.895Z,22.60
2023-02-23T14:45:06.964Z,22.70
2023-02-23T14:48:13.390Z,22.80
2023-02-23T14:51:23.445Z,22.70
2023-02-23T14:54:37.282Z,22.70
2023-02-23T14:57:41.770Z,22.60
2023-02-23T15:00:44.335Z,22.60
2023-02-23T15:04:09.263Z,22.70
2023-02-23T15:07:25.257Z,22.90
2023-02-23T15:10:35.402Z,22.70
2023-02-23T15:13:41.988Z,22.80
2023-02-23T15:16:47.783Z,22.90
2023-02-23T15:20:14.278Z,23.00
2023-02-23T15:23:19.431Z,23.00
2023-02-23T15:26:27.132Z,23.20
2023-02-23T15:29:33.592Z,23.10
2023-02-23T15:32:38.516Z,23.10
2023-02-23T15:36:21.050Z,23.00
2023-02-23T15:39:35.290Z,22.90
2023-02-23T15:42:53.857Z,22.80
2023-02-23T15:46:00.291Z,22.80
2023-02-23T15:49:06.914Z,22.80
2023-02-23T15:52:23.530Z,22.80
2023-02-23T15:55:28.531Z,22.90
2023-02-23T15:58:41.820Z,22.90
2023-02-23T16:01:47.492Z,23.00
2023-02-23T16:04:52.659Z,22.90
2023-02-23T16:08:05.342Z,23.00
2023-02-23T16:11:13.396Z,22.90
2023-02-23T16:14:17.536Z,22.90
2023-02-23T16:17:27.897Z,22.90
2023-02-23T16:20:35.104Z,22.90
2023-02-23T16:23:42.479Z,23.00
2023-02-23T16:26:53.726Z,23.10
2023-02-23T16:30:00.403Z,23.20
2023-02-23T16:33:08.492Z,23.20
2023-02-23T16:36:12.178Z,23.30
2023-02-23T16:39:17.414Z,23.30
2023-02-23T16:42:31.124Z,23.40
2023-02-23T16:45:33.375Z,23.40
2023-02-23T16:48:35.851Z,23.40
2023-02-23T16:51:37.902Z,23.30
2023-02-23T16:54:40.212Z,23.40
2023-02-23T16:57:42.248Z,23.40
2023-02-23T17:00:44.987Z,23.40
2023-02-23T17:03:52.568Z,23.50
2023-02-23T17:06:57.909Z,23.30
2023-02-23T17:10:00.065Z,23.60
2023-02-23T17:13:07.136Z,23.50
2023-02-23T17:16:13.021Z,23.40
2023-02-23T17:19:15.950Z,23.40
2023-02-23T17:22:18.964Z,23.40
2023-02-23T17:25:24.324Z,23.50
2023-02-23T17:28:26.523Z,23.50
2023-02-23T17:31:29.208Z,23.50
2023-02-23T17:34:31.776Z,23.60
2023-02-23T17:37:37.730Z,23.50
2023-02-23T17:40:39.795Z,23.60
2023-02-23T17:43:42.690Z,23.60
2023-02-23T17:46:44.838Z,23.60
2023-02-23T17:49:47.090Z,23.70
2023-02-23T17:52:50.886Z,23.80
2023-02-23T17:55:54.313Z,23.80
2023-02-23T17:58:56.404Z,23.70
2023-02-23T18:01:58.843Z,23.90
2023-02-23T18:05:00.853Z,24.00
2023-02-23T18:08:03.120Z,24.00
2023-02-23T18:11:06.130Z,24.10
2023-02-23T18:14:13.797Z,24.00
2023-02-23T18:17:16.373Z,24.00
2023-02-23T18:20:18.799Z,24.30
2023-02-23T18:23:22.035Z,24.20
2023-02-23T18:26:24.758Z,24.60
2023-02-23T18:29:31.203Z,24.80
2023-02-23T18:32:33.526Z,25.10
2023-02-23T18:35:42.200Z,25.40
2023-02-23T18:38:44.744Z,25.60
2023-02-23T18:41:50.053Z,25.80
2023-02-23T18:44:52.337Z,25.80
2023-02-23T18:47:57.257Z,26.00
2023-02-23T18:51:07.760Z,25.90
2023-02-23T18:54:20.608Z,26.00
2023-02-23T18:57:24.440Z,26.10
2023-02-23T19:00:27.486Z,26.10
2023-02-23T19:03:29.968Z,26.10
2023-02-23T19:06:38.928Z,26.00
2023-02-23T19:09:44.210Z,26.30
2023-02-23T19:12:48.321Z,26.20
2023-02-23T19:15:53.347Z,26.50
2023-02-23T19:19:03.114Z,26.60
2023-02-23T19:22:06.024Z,26.50
2023-02-23T19:25:11.764Z,26.60
2023-02-23T19:28:14.341Z,26.70
2023-02-23T19:31:20.994Z,26.80
2023-02-23T19:34:24.549Z,26.80
2023-02-23T19:37:26.613Z,27.10
2023-02-23T19:40:30.665Z,26.80
2023-02-23T19:43:32.736Z,26.70
2023-02-23T19:46:36.511Z,26.70
2023-02-23T19:49:38.646Z,26.80
2023-02-23T19:52:40.904Z,26.80
2023-02-23T19:55:43.412Z,27.00
2023-02-23T19:58:46.842Z,27.00
2023-02-23T20:01:51.542Z,27.10
2023-02-23T20:04:53.925Z,27.30
2023-02-23T20:07:55.985Z,27.20
2023-02-23T20:10:58.388Z,27.40
2023-02-23T20:14:04.270Z,27.40
2023-02-23T20:17:06.571Z,27.30
2023-02-23T20:20:10.933Z,27.30
2023-02-23T20:23:13.166Z,27.30
2023-02-23T20:26:20.517Z,27.20
2023-02-23T20:29:28.271Z,27.40
2023-02-23T20:32:31.290Z,27.20
2023-02-23T20:35:33.815Z,27.30
2023-02-23T20:38:38.034Z,27.50
2023-02-23T20:45:29.061Z,27.80
2023-02-23T20:48:33.961Z,27.80
2023-02-23T20:51:37.149Z,28.00
2023-02-23T20:54:40.068Z,28.20
2023-02-23T20:57:48.904Z,28.10
2023-02-23T21:00:57.025Z,28.10
2023-02-23T21:04:03.971Z,28.60
2023-02-23T21:07:06.813Z,28.80
2023-02-23T21:10:10.518Z,28.80
2023-02-23T21:13:15.882Z,28.40
2023-02-23T21:16:37.414Z,28.40
2023-02-23T21:19:44.059Z,28.30
2023-02-23T21:22:49.631Z,28.30
2023-02-23T21:25:57.759Z,28.10
2023-02-23T21:29:11.773Z,27.90
2023-02-23T21:32:14.392Z,28.10
2023-02-23T21:35:17.565Z,27.90
2023-02-23T21:38:21.129Z,27.90
2023-02-23T21:41:24.770Z,27.90
2023-02-23T21:44:27.085Z,27.80
2023-02-23T21:47:34.231Z,27.90
2023-02-23T21:50:36.220Z,27.70
2023-02-23T21:53:41.781Z,27.80
2023-02-23T21:56:45.660Z,27.90
2023-02-23T21:59:48.458Z,27.70
2023-02-23T22:02:51.579Z,27.80
2023-02-23T22:05:54.610Z,27.80
2023-02-23T22:08:57.252Z,27.90
2023-02-23T22:11:59.528Z,27.90
2023-02-23T22:15:10.360Z,28.00
2023-02-23T22:18:14.241Z,27.90
2023-02-23T22:21:19.478Z,28.00
2023-02-23T22:24:21.921Z,27.90
2023-02-23T22:27:24.030Z,28.10
2023-02-23T22:30:28.406Z,28.20
2023-02-23T22:33:31.532Z,28.20
2023-02-23T22:36:34.433Z,28.10
2023-02-23T22:39:36.429Z,28.10
2023-02-23T22:42:38.779Z,28.00
2023-02-23T22:45:41.949Z,28.00
2023-02-23T22:48:45.083Z,27.90
2023-02-23T22:51:47.454Z,27.80
2023-02-23T22:54:51.225Z,27.80
2023-02-23T22:57:53.208Z,27.70
2023-02-23T23:01:02.937Z,27.70
2023-02-23T23:04:11.005Z,27.80
2023-02-23T23:07:13.857Z,27.90
2023-02-23T23:10:18.049Z,28.10
2023-02-23T23:13:20.507Z,28.10
2023-02-23T23:16:31.870Z,28.10
2023-02-23T23:19:39.071Z,28.10
2023-02-23T23:22:41.526Z,28.00
2023-02-23T23:25:49.709Z,28.20
2023-02-23T23:28:55.083Z,28.10
2023-02-23T23:31:57.561Z,28.20
2023-02-23T23:34:59.885Z,28.30
2023-02-23T23:38:03.121Z,28.40
2023-02-23T23:41:11.946Z,28.30
2023-02-23T23:44:23.084Z,28.20
2023-02-23T23:47:25.992Z,28.30
2023-02-23T23:50:28.294Z,28.30
2023-02-23T23:53:30.259Z,28.30
2023-02-23T23:56:35.907Z,28.20
2023-02-23T23:59:45.703Z,28.10
